• Join FlightAware (Why Join?)
  • Login
  • US Flag 
06:27PM EST


 

Airport Tracker/Info


-or-


 

Live Flight TrackerFlight Track Log ✈ EJA820 ✈ 19-Apr-2013 ✈ KPVC - KHPN

Flight Track Log - Related Links

Times and Time Zones

All times are in EDT time to prevent confusion due to time zone crossing. See the EJA820 flight status page for this flight to view local times or setup timezone preferences in your user account.

Time Position Orientation Groundspeed Altitude Reporting Facility
EDT Latitude Longitude Course Direction KTS MPH feet Rate Location/Type
01:11PM 42.0833 -70.2553 178° South 206 237 9,900  Level Boston Center
01:12PM 42.0167 -70.2519 178° South 225 259 9,900 780 Level Boston Center
01:13PM 41.9483 -70.2739 193° South 247 284 11,600 1,740 Climbing Boston Center
01:14PM 41.8928 -70.3178 210° Southwest 241 277 13,400 1,800 Climbing Boston Center
01:15PM 41.8394 -70.3614 211° Southwest 236 272 15,200 1,200 Climbing Boston Center
01:16PM 41.8181 -70.4400 250° West 227 261 15,900 300 Climbing Boston Center
01:17PM 41.8072 -70.5433 262° West 239 275 15,900  Level Boston Center
01:18PM 41.7986 -70.6522 264° West 267 307 15,900  Level Boston Center
01:19PM 41.7878 -70.7639 263° West 298 343 15,900  Level Boston Center
01:20PM 41.7789 -70.8756 264° West 308 354 15,900  Level Boston Center
01:21PM 41.7681 -70.9928 263° West 314 361 15,900  Level Boston Center
01:22PM 41.7589 -71.1069 264° West 314 361 15,900  Level Boston Center
01:23PM 41.7872 -71.2206 289° West 314 361 15,900  Level Boston Center
01:24PM 41.8197 -71.3369 291° West 314 361 15,900  Level Boston Center
01:25PM 41.8500 -71.4453 291° West 321 369 15,900  Level Boston Center
01:26PM 41.8653 -71.5369 283° West 321 369 16,000 60 Climbing Boston Center
01:27PM 41.8725 -71.6733 274° West 316 364 16,100  Climbing Boston Center
01:28PM 41.8797 -71.7906 275° West 316 364 16,100 -600 Level Boston Center
01:29PM 41.8886 -71.9075 276° West 311 358 15,000 -1,020 Descending Boston Center
01:30PM 41.8953 -72.0189 275° West 311 358 14,100 -480 Descending Boston Center
01:31PM 41.9039 -72.1278 276° West 305 351 14,100  Level Boston Center
01:32PM 41.9106 -72.2336 275° West 300 345 14,100 -60 Level Boston Center
01:33PM 41.9169 -72.3397 275° West 294 338 14,000 -60 Descending Boston Center
01:34PM 41.9253 -72.4514 276° West 294 338 14,000  Level Boston Center
01:35PM 41.9336 -72.5600 276° West 294 338 14,000  Level Boston Center
01:36PM 41.9375 -72.6717 273° West 294 338 14,000  Level Boston Center
01:37PM 41.9144 -72.7525 249° West 283 326 14,000 -420 Level Boston Center
01:38PM 41.8744 -72.8528 242° Southwest 278 320 13,200 -960 Descending Boston Center
01:39PM 41.8303 -72.9583 241° Southwest 283 326 12,000 -600 Descending Boston Center
01:40PM 41.7922 -73.0497 241° Southwest 266 306 12,000  Level Boston Center
01:41PM 41.7586 -73.1303 241° Southwest 260 299 12,000  Level Boston Center
01:42PM 41.7247 -73.2133 241° Southwest 255 293 12,000  Level Boston Center
01:43PM 41.6928 -73.2853 239° Southwest 255 293 12,000  Level Boston Center
01:44PM 41.6547 -73.3708 239° Southwest 255 293 12,000 -360 Level Boston Center
01:45PM 41.6247 -73.4425 241° Southwest 249 287 11,300 -1,320 Descending Boston Center
01:47PM 41.5667 -73.5833 241° Southwest 236 272 8,500 -1,740 Descending New York TRACON
01:48PM 41.5333 -73.6500 236° Southwest 224 258 6,800 -2,100 Descending New York TRACON
01:49PM 41.4833 -73.7000 217° Southwest 204 235 4,400 -1,800 Descending New York TRACON
01:50PM 41.4333 -73.7333 207° Southwest 183 211 3,100 -780 Descending New York TRACON
01:51PM 41.4000 -73.7667 217° Southwest 138 159 3,000 -60 Descending New York TRACON
01:52PM 41.3667 -73.8000 217° Southwest 174 200 3,000  Level New York TRACON
01:53PM 41.3167 -73.8000 180° South 163 188 3,000 -540 Level New York TRACON
01:54PM 41.2833 -73.7833 159° South 176 203 2,000 -360 Descending New York TRACON
01:56PM 41.2000 -73.7500 163° South 168 193 2,000  Level New York TRACON
01:57PM 41.1500 -73.7500 180° South 136 157 2,000 -240 Level New York TRACON
01:58PM 41.1167 -73.7333 159° South 133 153 1,600 -420 Descending New York TRACON